createdAt,value
2022-07-25T00:01:56.906Z,22.69
2022-07-25T00:04:24.992Z,22.51
2022-07-25T00:06:52.032Z,22.70
2022-07-25T00:09:19.215Z,22.50
2022-07-25T00:11:46.322Z,22.60
2022-07-25T00:14:13.649Z,22.82
2022-07-25T00:16:40.729Z,22.72
2022-07-25T00:19:07.837Z,22.77
2022-07-25T00:21:35.005Z,22.82
2022-07-25T00:24:02.170Z,22.92
2022-07-25T00:26:29.385Z,22.82
2022-07-25T00:28:56.497Z,22.83
2022-07-25T00:31:23.738Z,22.87
2022-07-25T00:33:50.853Z,22.94
2022-07-25T00:36:22.914Z,22.94
2022-07-25T00:38:49.936Z,22.81
2022-07-25T00:41:16.984Z,22.97
2022-07-25T00:43:45.633Z,23.00
2022-07-25T00:46:19.286Z,22.91
2022-07-25T00:48:48.049Z,22.72
2022-07-25T00:51:16.188Z,22.51
2022-07-25T00:53:43.437Z,22.45
2022-07-25T00:56:10.756Z,22.34
2022-07-25T00:58:38.133Z,22.13
2022-07-25T01:01:05.821Z,21.97
2022-07-25T01:03:33.032Z,22.02
2022-07-25T01:06:00.156Z,22.17
2022-07-25T01:08:27.848Z,22.19
2022-07-25T01:10:55.210Z,22.24
2022-07-25T01:13:22.438Z,22.21
2022-07-25T01:15:54.460Z,22.17
2022-07-25T01:18:22.064Z,22.11
2022-07-25T01:20:49.123Z,22.11
2022-07-25T01:23:16.608Z,22.11
2022-07-25T01:25:43.738Z,22.21
2022-07-25T01:28:10.877Z,22.34
2022-07-25T01:30:38.056Z,22.11
2022-07-25T01:33:06.809Z,22.05
2022-07-25T01:35:34.487Z,21.99
2022-07-25T01:38:01.670Z,21.95
2022-07-25T01:40:28.951Z,21.76
2022-07-25T01:42:55.952Z,21.86
2022-07-25T01:45:23.089Z,22.16
2022-07-25T01:47:50.194Z,22.36
2022-07-25T01:50:17.504Z,22.46
2022-07-25T01:52:44.607Z,22.57
2022-07-25T01:55:11.781Z,22.56
2022-07-25T01:57:40.383Z,22.55
2022-07-25T02:00:10.609Z,22.56
2022-07-25T02:02:42.926Z,22.60
2022-07-25T02:05:11.870Z,22.55
2022-07-25T02:07:39.261Z,22.40
2022-07-25T02:10:07.742Z,22.27
2022-07-25T02:12:35.051Z,22.27
2022-07-25T02:15:02.217Z,22.23
2022-07-25T02:17:30.341Z,22.12
2022-07-25T02:19:57.417Z,22.17
2022-07-25T02:22:24.469Z,22.33
2022-07-25T02:24:52.400Z,22.24
2022-07-25T02:27:19.654Z,22.08
2022-07-25T02:29:46.788Z,21.96
2022-07-25T02:32:13.859Z,21.60
2022-07-25T02:34:40.974Z,21.25
2022-07-25T02:37:08.029Z,21.08
2022-07-25T02:39:35.123Z,20.72
2022-07-25T02:42:02.140Z,20.56
2022-07-25T02:44:29.186Z,20.60
2022-07-25T02:46:56.243Z,20.50
2022-07-25T02:49:23.361Z,20.42
2022-07-25T02:51:50.396Z,20.20
2022-07-25T02:54:17.471Z,20.23
2022-07-25T02:56:44.555Z,20.17
2022-07-25T02:59:11.650Z,20.13
2022-07-25T03:01:38.751Z,20.11
2022-07-25T03:04:06.157Z,20.05
2022-07-25T03:06:33.428Z,19.95
2022-07-25T03:09:00.480Z,20.13
2022-07-25T03:11:27.572Z,20.12
2022-07-25T03:13:55.147Z,20.22
2022-07-25T03:16:22.297Z,20.17
2022-07-25T03:18:49.486Z,19.77
2022-07-25T03:21:16.608Z,20.00
2022-07-25T03:23:44.683Z,19.93
2022-07-25T03:26:13.972Z,19.97
2022-07-25T03:28:41.102Z,20.13
2022-07-25T03:31:08.394Z,20.12
2022-07-25T03:33:35.468Z,20.22
2022-07-25T03:36:04.153Z,20.22
2022-07-25T03:38:31.275Z,20.44
2022-07-25T03:40:58.394Z,20.49
2022-07-25T03:43:25.646Z,20.53
2022-07-25T03:45:52.833Z,20.38
2022-07-25T03:48:20.073Z,20.51
2022-07-25T03:50:47.226Z,20.73
2022-07-25T03:53:14.863Z,20.81
2022-07-25T03:55:42.024Z,20.82
2022-07-25T03:58:09.077Z,20.96
2022-07-25T04:00:36.305Z,21.03
2022-07-25T04:03:03.512Z,21.04
2022-07-25T04:05:30.571Z,21.13
2022-07-25T04:07:57.652Z,21.11
2022-07-25T04:10:24.729Z,21.08
2022-07-25T04:12:52.224Z,21.33
2022-07-25T04:15:19.375Z,21.42
2022-07-25T04:17:46.596Z,21.52
2022-07-25T04:20:13.793Z,21.54
2022-07-25T04:22:44.794Z,21.65
2022-07-25T04:25:14.029Z,21.55
2022-07-25T04:27:41.298Z,21.72
2022-07-25T04:30:09.018Z,21.85
2022-07-25T04:32:36.129Z,22.01
2022-07-25T04:35:03.281Z,22.22
2022-07-25T04:37:30.876Z,22.22
2022-07-25T04:39:57.922Z,22.43
2022-07-25T04:42:25.269Z,22.66
2022-07-25T04:44:52.356Z,22.77
2022-07-25T04:47:19.388Z,22.89
2022-07-25T04:49:46.539Z,23.13
2022-07-25T04:52:13.698Z,23.58
2022-07-25T04:54:41.051Z,23.97
2022-07-25T04:57:08.087Z,24.40
2022-07-25T04:59:35.198Z,24.74
2022-07-25T05:02:02.834Z,24.89
2022-07-25T05:04:29.994Z,24.99
2022-07-25T05:06:59.455Z,25.15
2022-07-25T05:09:27.931Z,25.24
2022-07-25T05:11:56.610Z,25.72
2022-07-25T05:14:23.874Z,25.93
2022-07-25T05:16:51.018Z,26.08
2022-07-25T05:19:18.265Z,26.27
2022-07-25T05:21:45.356Z,26.81
2022-07-25T05:24:12.473Z,27.00
2022-07-25T05:26:39.577Z,26.77
2022-07-25T05:29:06.722Z,26.71
2022-07-25T05:31:33.933Z,26.72
2022-07-25T05:34:01.086Z,26.97
2022-07-25T05:36:28.430Z,27.34
2022-07-25T05:38:55.517Z,27.81
2022-07-25T05:41:22.809Z,28.24
2022-07-25T05:43:49.906Z,28.58
2022-07-25T05:46:17.150Z,29.15
2022-07-25T05:48:44.788Z,29.12
2022-07-25T05:51:30.576Z,29.21
2022-07-25T05:53:57.787Z,29.24
2022-07-25T05:56:24.896Z,29.52
2022-07-25T05:58:51.932Z,29.38
2022-07-25T06:01:19.213Z,29.05
2022-07-25T06:03:46.309Z,28.76
2022-07-25T06:06:14.304Z,29.31
2022-07-25T06:08:41.612Z,29.64
2022-07-25T06:11:09.569Z,29.98
2022-07-25T06:13:36.709Z,30.17
2022-07-25T06:16:04.073Z,30.39
2022-07-25T06:18:31.269Z,30.49
2022-07-25T06:20:58.719Z,30.79
2022-07-25T06:23:27.790Z,30.84
2022-07-25T06:25:55.158Z,31.20
2022-07-25T06:28:22.527Z,31.33
2022-07-25T06:30:49.910Z,30.97
2022-07-25T06:33:17.013Z,31.27
2022-07-25T06:35:44.103Z,31.24
2022-07-25T06:38:11.564Z,31.52
2022-07-25T06:40:38.794Z,31.42
2022-07-25T06:43:06.015Z,32.08
2022-07-25T06:45:33.470Z,32.27
2022-07-25T06:48:00.622Z,32.09
2022-07-25T06:50:27.786Z,31.77
2022-07-25T06:52:55.233Z,31.64
2022-07-25T06:55:22.350Z,31.17
2022-07-25T06:57:49.607Z,31.54
2022-07-25T07:00:16.928Z,32.04
2022-07-25T07:03:00.009Z,32.72
2022-07-25T07:05:31.083Z,33.04
2022-07-25T07:07:59.493Z,32.78
2022-07-25T07:10:28.220Z,32.26
2022-07-25T07:13:10.534Z,32.30
2022-07-25T07:15:39.215Z,32.00
2022-07-25T07:18:07.413Z,31.53
2022-07-25T07:20:35.042Z,30.95
2022-07-25T07:23:02.808Z,30.95
2022-07-25T07:25:30.953Z,31.11
2022-07-25T07:27:59.188Z,30.31
2022-07-25T07:30:52.225Z,30.52
2022-07-25T07:33:13.453Z,30.01
2022-07-25T07:35:41.460Z,29.82
2022-07-25T07:38:09.357Z,30.10
2022-07-25T07:40:36.470Z,29.00
2022-07-25T07:43:04.169Z,28.80
2022-07-25T07:45:31.423Z,28.39
2022-07-25T07:47:58.630Z,28.12
2022-07-25T07:50:27.756Z,28.38
2022-07-25T07:52:58.694Z,28.53
2022-07-25T07:55:44.640Z,28.24
2022-07-25T07:58:15.830Z,27.74
2022-07-25T08:00:47.513Z,28.07
2022-07-25T08:03:19.495Z,28.74
2022-07-25T08:05:49.112Z,29.37
2022-07-25T08:08:16.632Z,30.31
2022-07-25T08:10:46.117Z,31.16
2022-07-25T08:13:15.810Z,31.40
2022-07-25T08:15:44.846Z,30.81
2022-07-25T08:18:17.527Z,29.75
2022-07-25T08:20:48.673Z,30.17
2022-07-25T08:23:16.243Z,30.81
2022-07-25T08:25:45.190Z,31.00
2022-07-25T08:28:13.451Z,30.74
2022-07-25T08:30:42.191Z,30.76
2022-07-25T08:33:13.545Z,30.12
2022-07-25T08:35:45.850Z,30.20
2022-07-25T08:38:12.890Z,30.54
2022-07-25T08:40:40.155Z,31.45
2022-07-25T08:43:13.651Z,32.47
2022-07-25T08:46:01.441Z,32.16
2022-07-25T08:48:29.880Z,32.89
2022-07-25T08:50:57.589Z,32.69
2022-07-25T08:53:34.570Z,32.76
2022-07-25T08:56:10.710Z,32.19
2022-07-25T08:58:40.072Z,32.24
2022-07-25T09:01:08.261Z,32.52
2022-07-25T09:03:36.519Z,33.63
2022-07-25T09:06:15.185Z,33.78
2022-07-25T09:08:52.027Z,33.77
2022-07-25T09:11:37.628Z,33.21
2022-07-25T09:14:10.799Z,32.79
2022-07-25T09:16:43.362Z,31.75
2022-07-25T09:19:16.379Z,31.38
2022-07-25T09:21:46.041Z,31.24
2022-07-25T09:24:18.933Z,31.12
2022-07-25T09:26:52.138Z,30.81
2022-07-25T09:29:25.016Z,31.47
2022-07-25T09:31:54.107Z,32.37
2022-07-25T09:34:38.767Z,32.78
2022-07-25T09:37:08.270Z,33.70
2022-07-25T09:39:40.759Z,34.67
2022-07-25T09:42:21.668Z,33.36
2022-07-25T09:44:58.135Z,32.43
2022-07-25T09:47:25.611Z,32.56
2022-07-25T09:49:53.262Z,32.55
2022-07-25T09:52:20.350Z,32.40
2022-07-25T09:54:47.534Z,33.00
2022-07-25T09:57:15.159Z,33.00
2022-07-25T09:59:42.691Z,33.18
2022-07-25T10:02:18.028Z,33.10
2022-07-25T10:04:48.682Z,34.32
2022-07-25T10:07:19.707Z,34.19
2022-07-25T10:09:51.695Z,34.12
2022-07-25T10:12:22.145Z,33.00
2022-07-25T10:15:11.656Z,32.66
2022-07-25T10:17:41.286Z,32.35
2022-07-25T10:20:10.438Z,31.63
2022-07-25T10:22:58.037Z,31.78
2022-07-25T10:25:25.743Z,32.38
2022-07-25T10:28:01.363Z,33.27
2022-07-25T10:30:37.166Z,34.08
2022-07-25T10:33:21.538Z,34.57
2022-07-25T10:35:48.768Z,34.34
2022-07-25T10:38:25.338Z,33.99
2022-07-25T10:40:52.905Z,34.37
2022-07-25T10:43:22.857Z,34.66
2022-07-25T10:45:54.231Z,33.68
2022-07-25T10:48:30.267Z,33.26
2022-07-25T10:51:04.831Z,33.02
2022-07-25T10:53:38.545Z,32.65
2022-07-25T10:56:07.561Z,33.56
2022-07-25T10:59:01.035Z,34.45
2022-07-25T11:01:34.361Z,35.55
2022-07-25T11:04:03.864Z,35.85
2022-07-25T11:06:30.777Z,36.69
2022-07-25T11:09:00.433Z,36.37
2022-07-25T11:11:38.782Z,34.95
2022-07-25T11:14:13.899Z,34.42
2022-07-25T11:16:41.080Z,33.79
2022-07-25T11:19:26.089Z,34.16
2022-07-25T11:21:59.677Z,33.31
2022-07-25T11:24:41.253Z,33.75
2022-07-25T11:27:12.207Z,34.56
2022-07-25T11:29:40.795Z,35.38
2022-07-25T11:32:11.028Z,36.41
2022-07-25T11:34:50.468Z,37.28
2022-07-25T11:37:18.710Z,38.03
2022-07-25T11:39:47.813Z,37.44
2022-07-25T11:42:16.642Z,36.76
2022-07-25T11:44:48.093Z,37.02
2022-07-25T11:47:42.015Z,36.08
2022-07-25T11:50:14.888Z,36.25
2022-07-25T11:52:43.744Z,36.49
2022-07-25T11:55:14.248Z,36.14
2022-07-25T11:57:46.419Z,36.14
2022-07-25T12:00:21.217Z,36.33
2022-07-25T12:02:49.940Z,37.81
2022-07-25T12:05:19.660Z,37.97
2022-07-25T12:07:53.250Z,36.97
2022-07-25T12:10:24.540Z,37.25
2022-07-25T12:12:54.482Z,38.18
2022-07-25T12:15:25.066Z,38.80
2022-07-25T12:17:53.714Z,38.41
2022-07-25T12:20:25.933Z,38.09
2022-07-25T12:22:57.792Z,36.78
2022-07-25T12:25:30.434Z,37.33
2022-07-25T12:27:59.218Z,37.57
2022-07-25T12:30:28.837Z,38.39
2022-07-25T12:32:57.587Z,38.90
2022-07-25T12:35:25.410Z,38.76
2022-07-25T12:37:53.192Z,38.34
2022-07-25T12:40:21.055Z,37.95
2022-07-25T12:42:49.050Z,36.60
2022-07-25T12:45:17.988Z,37.22
2022-07-25T12:47:46.260Z,36.26
2022-07-25T12:50:14.697Z,36.34
2022-07-25T12:52:42.857Z,35.38
2022-07-25T12:55:12.677Z,34.94
2022-07-25T12:57:40.199Z,34.75
2022-07-25T13:00:11.201Z,34.54
2022-07-25T13:02:38.884Z,34.45
2022-07-25T13:05:06.756Z,35.69
2022-07-25T13:07:38.240Z,36.94
2022-07-25T13:10:12.733Z,36.66
2022-07-25T13:12:39.988Z,35.63
2022-07-25T13:15:08.137Z,35.88
2022-07-25T13:17:35.572Z,37.00
2022-07-25T13:20:03.336Z,37.98
2022-07-25T13:22:31.050Z,38.70
2022-07-25T13:24:58.390Z,38.95
2022-07-25T13:27:25.476Z,39.11
2022-07-25T13:29:54.823Z,38.62
2022-07-25T13:32:22.810Z,38.75
2022-07-25T13:34:50.218Z,38.80
2022-07-25T13:37:17.369Z,38.92
2022-07-25T13:39:44.472Z,39.25
2022-07-25T13:42:11.540Z,39.43
2022-07-25T13:44:38.973Z,39.51
2022-07-25T13:47:06.399Z,39.73
2022-07-25T13:49:33.557Z,39.81
2022-07-25T13:52:00.743Z,39.75
2022-07-25T13:54:27.853Z,39.85
2022-07-25T13:56:55.050Z,39.96
2022-07-25T13:59:22.310Z,40.25
2022-07-25T14:01:50.590Z,39.68
2022-07-25T14:04:17.766Z,39.34
2022-07-25T14:06:44.913Z,38.46
2022-07-25T14:09:12.153Z,37.80
2022-07-25T14:11:39.320Z,37.05
2022-07-25T14:14:06.627Z,36.68
2022-07-25T14:16:34.531Z,35.96
2022-07-25T14:19:02.566Z,34.88
2022-07-25T14:21:30.701Z,34.14
2022-07-25T14:23:58.319Z,33.49
2022-07-25T14:26:28.389Z,32.88
2022-07-25T14:28:56.083Z,32.26
2022-07-25T14:31:24.065Z,31.75
2022-07-25T14:33:51.420Z,31.32
2022-07-25T14:36:18.571Z,30.97
2022-07-25T14:41:38.639Z,30.29
2022-07-25T14:45:04.267Z,29.11
2022-07-25T14:47:42.889Z,29.70
2022-07-25T14:50:17.323Z,29.06
2022-07-25T14:52:45.388Z,28.88
2022-07-25T14:55:12.532Z,28.97
2022-07-25T14:57:40.401Z,29.08
2022-07-25T15:00:08.331Z,29.17
2022-07-25T15:02:35.582Z,28.97
2022-07-25T15:05:02.778Z,29.07
2022-07-25T15:07:30.556Z,29.06
2022-07-25T15:09:58.065Z,28.99
2022-07-25T15:12:25.238Z,29.11
2022-07-25T15:14:52.428Z,29.05
2022-07-25T15:17:19.558Z,28.95
2022-07-25T15:19:46.646Z,29.14
2022-07-25T15:22:13.816Z,28.93
2022-07-25T15:25:06.740Z,29.16
2022-07-25T15:27:29.818Z,29.07
2022-07-25T15:29:56.876Z,29.10
2022-07-25T15:32:23.966Z,28.99
2022-07-25T15:34:51.038Z,28.95
2022-07-25T15:37:18.152Z,28.79
2022-07-25T15:39:45.620Z,28.56
2022-07-25T15:42:12.681Z,28.47
2022-07-25T15:44:39.817Z,28.50
2022-07-25T15:47:07.829Z,28.23
2022-07-25T15:49:36.980Z,27.82
2022-07-25T15:52:04.570Z,27.58
2022-07-25T15:54:31.933Z,27.47
2022-07-25T15:56:59.143Z,27.20
2022-07-25T15:59:26.255Z,27.06
2022-07-25T16:01:53.454Z,26.78
2022-07-25T16:04:24.192Z,26.35
2022-07-25T16:06:51.315Z,25.95
2022-07-25T16:09:19.502Z,26.17
2022-07-25T16:11:46.592Z,26.09
2022-07-25T16:14:13.733Z,25.93
2022-07-25T16:16:41.073Z,25.84
2022-07-25T16:19:09.384Z,25.58
2022-07-25T16:21:37.029Z,25.27
2022-07-25T16:24:04.337Z,25.21
2022-07-25T16:26:31.678Z,25.13
2022-07-25T16:28:58.927Z,25.06
2022-07-25T16:31:26.898Z,24.98
2022-07-25T16:33:54.322Z,24.64
2022-07-25T16:36:21.620Z,24.63
2022-07-25T16:38:52.488Z,24.34
2022-07-25T16:41:20.033Z,24.45
2022-07-25T16:43:47.132Z,24.34
2022-07-25T16:46:14.257Z,24.33
2022-07-25T16:48:41.509Z,24.07
2022-07-25T16:51:08.584Z,24.13
2022-07-25T16:53:36.661Z,24.23
2022-07-25T16:56:04.497Z,24.12
2022-07-25T16:58:31.565Z,24.10
2022-07-25T17:00:58.827Z,23.98
2022-07-25T17:03:25.896Z,23.73
2022-07-25T17:05:54.103Z,23.81
2022-07-25T17:08:21.254Z,23.77
2022-07-25T17:10:48.580Z,23.83
2022-07-25T17:13:15.900Z,23.83
2022-07-25T17:15:44.149Z,23.79
2022-07-25T17:18:11.517Z,23.95
2022-07-25T17:20:38.796Z,23.92
2022-07-25T17:23:06.151Z,23.84
2022-07-25T17:25:33.764Z,23.82
2022-07-25T17:28:01.132Z,23.82
2022-07-25T17:30:28.261Z,23.61
2022-07-25T17:32:55.690Z,23.62
2022-07-25T17:35:22.801Z,23.50
2022-07-25T17:37:49.964Z,23.51
2022-07-25T17:40:17.091Z,23.40
2022-07-25T17:42:45.574Z,23.46
2022-07-25T17:45:13.058Z,23.30
2022-07-25T17:47:41.081Z,23.32
2022-07-25T17:50:08.983Z,23.31
2022-07-25T17:52:36.096Z,23.15
2022-07-25T17:55:04.111Z,23.25
2022-07-25T17:57:33.064Z,23.14
2022-07-25T18:00:05.188Z,23.20
2022-07-25T18:02:40.034Z,23.03
2022-07-25T18:05:07.703Z,23.01
2022-07-25T18:07:34.851Z,22.89
2022-07-25T18:10:02.147Z,22.90
2022-07-25T18:12:31.017Z,22.69
2022-07-25T18:14:58.258Z,22.69
2022-07-25T18:17:25.347Z,22.64
2022-07-25T18:19:52.428Z,22.78
2022-07-25T18:22:19.516Z,22.74
2022-07-25T18:24:46.641Z,22.79
2022-07-25T18:27:13.989Z,22.81
2022-07-25T18:29:42.157Z,22.67
2022-07-25T18:32:09.395Z,22.62
2022-07-25T18:34:37.175Z,22.58
2022-07-25T18:37:05.621Z,22.61
2022-07-25T18:39:34.626Z,22.56
2022-07-25T18:42:01.779Z,22.45
2022-07-25T18:44:28.878Z,22.42
2022-07-25T18:46:55.944Z,22.45
2022-07-25T18:49:23.341Z,22.32
2022-07-25T18:51:50.648Z,22.15
2022-07-25T18:54:17.715Z,22.01
2022-07-25T18:56:44.796Z,22.28
2022-07-25T18:59:12.059Z,22.32
2022-07-25T19:01:39.229Z,22.14
2022-07-25T19:04:08.724Z,22.24
2022-07-25T19:06:36.727Z,22.19
2022-07-25T19:09:04.344Z,22.10
2022-07-25T19:11:33.409Z,22.07
2022-07-25T19:14:00.752Z,22.04
2022-07-25T19:16:28.242Z,21.87
2022-07-25T19:18:55.531Z,21.95
2022-07-25T19:21:22.681Z,21.96
2022-07-25T19:23:51.120Z,21.91
2022-07-25T19:26:20.370Z,22.10
2022-07-25T19:28:47.736Z,22.11
2022-07-25T19:31:15.223Z,22.06
2022-07-25T19:33:42.628Z,22.14
2022-07-25T19:36:10.060Z,22.08
2022-07-25T19:38:37.271Z,22.17
2022-07-25T19:41:04.473Z,22.19
2022-07-25T19:43:31.534Z,22.21
2022-07-25T19:45:58.622Z,22.22
2022-07-25T19:48:25.841Z,22.08
2022-07-25T19:50:53.267Z,22.20
2022-07-25T19:53:23.145Z,22.21
2022-07-25T19:55:52.784Z,22.02
2022-07-25T19:58:22.905Z,22.18
2022-07-25T20:00:50.244Z,22.15
2022-07-25T20:03:17.354Z,22.13
2022-07-25T20:05:52.210Z,22.23
2022-07-25T20:08:19.543Z,22.23
2022-07-25T20:10:48.469Z,22.14
2022-07-25T20:13:18.296Z,21.97
2022-07-25T20:15:45.650Z,22.10
2022-07-25T20:18:17.412Z,22.10
2022-07-25T20:20:46.849Z,21.85
2022-07-25T20:23:13.964Z,21.96
2022-07-25T20:25:41.136Z,22.02
2022-07-25T20:28:08.508Z,21.85
2022-07-25T20:30:36.170Z,21.95
2022-07-25T20:33:05.291Z,21.90
2022-07-25T20:35:38.518Z,21.94
2022-07-25T20:38:09.219Z,21.98
2022-07-25T20:40:48.049Z,21.97
2022-07-25T20:43:20.637Z,21.98
2022-07-25T20:45:48.402Z,21.82
2022-07-25T20:48:18.196Z,22.10
2022-07-25T20:50:45.595Z,21.97
2022-07-25T20:53:18.114Z,22.09
2022-07-25T20:55:45.355Z,22.01
2022-07-25T20:58:12.781Z,22.05
2022-07-25T21:00:43.827Z,22.03
2022-07-25T21:03:11.381Z,22.25
2022-07-25T21:05:40.572Z,22.32
2022-07-25T21:08:12.763Z,22.23
2022-07-25T21:10:43.880Z,22.04
2022-07-25T21:13:11.435Z,21.94
2022-07-25T21:15:39.531Z,22.02
2022-07-25T21:18:10.866Z,21.69
2022-07-25T21:20:38.564Z,21.74
2022-07-25T21:23:10.483Z,21.64
2022-07-25T21:25:37.653Z,21.89
2022-07-25T21:28:04.999Z,21.82
2022-07-25T21:30:32.127Z,21.94
2022-07-25T21:32:59.504Z,21.80
2022-07-25T21:35:26.515Z,21.94
2022-07-25T21:37:54.894Z,21.91
2022-07-25T21:40:22.844Z,21.86
2022-07-25T21:42:50.099Z,21.80
2022-07-25T21:45:17.905Z,21.63
2022-07-25T21:47:47.293Z,21.58
2022-07-25T21:50:33.540Z,21.54
2022-07-25T21:53:00.606Z,21.64
2022-07-25T21:55:27.703Z,21.55
2022-07-25T21:57:57.238Z,21.51
2022-07-25T22:00:24.713Z,21.45
2022-07-25T22:02:51.951Z,21.32
2022-07-25T22:05:19.950Z,21.33
2022-07-25T22:07:47.819Z,21.28
2022-07-25T22:10:16.886Z,21.33
2022-07-25T22:12:44.310Z,21.31
2022-07-25T22:15:13.012Z,21.28
2022-07-25T22:17:48.457Z,21.34
2022-07-25T22:20:19.028Z,21.27
2022-07-25T22:22:48.452Z,21.02
2022-07-25T22:27:44.122Z,21.09
2022-07-25T22:30:16.440Z,21.12
2022-07-25T22:32:47.735Z,21.19
2022-07-25T22:35:15.390Z,21.05
2022-07-25T22:37:44.596Z,21.10
2022-07-25T22:40:12.772Z,21.13
2022-07-25T22:42:39.922Z,20.91
2022-07-25T22:45:08.187Z,20.93
2022-07-25T22:47:35.449Z,21.01
2022-07-25T22:50:02.754Z,20.90
2022-07-25T22:52:30.325Z,20.78
2022-07-25T22:54:57.363Z,20.80
2022-07-25T22:57:24.549Z,20.88
2022-07-25T22:59:51.730Z,20.82
2022-07-25T23:02:18.851Z,20.69
2022-07-25T23:04:45.992Z,20.83
2022-07-25T23:07:13.338Z,20.48
2022-07-25T23:09:40.608Z,20.74
2022-07-25T23:12:08.070Z,20.72
2022-07-25T23:14:35.303Z,20.60
2022-07-25T23:17:17.320Z,20.58
2022-07-25T23:19:45.481Z,20.58
2022-07-25T23:22:12.902Z,20.53
2022-07-25T23:24:40.195Z,20.44
2022-07-25T23:27:07.460Z,20.55
2022-07-25T23:29:34.578Z,20.47
2022-07-25T23:32:02.640Z,20.53
2022-07-25T23:34:29.821Z,20.49
2022-07-25T23:36:57.202Z,20.23
2022-07-25T23:39:24.292Z,20.51
2022-07-25T23:41:51.692Z,20.50
2022-07-25T23:44:18.941Z,20.58
2022-07-25T23:46:47.152Z,20.50
2022-07-25T23:49:14.430Z,20.34
2022-07-25T23:51:41.544Z,20.52
2022-07-25T23:54:08.800Z,20.51
2022-07-25T23:56:36.138Z,20.49
2022-07-25T23:59:03.895Z,20.59
